• Join FlightAware (Why Join?)
  • Login
  • US Flag 
04:25AM EDT


 

Airport Tracker/Info


-or-


 

Live Flight TrackerFlight Track Log ✈ N911PJ ✈ 07-Nov-2013 ✈ KHZE - KRAP

Flight Track Log - Related Links

Times and Time Zones

All times are in EST time to prevent confusion due to time zone crossing. See the N911PJ flight status page for this flight to view local times or setup timezone preferences in your user account.

Time Position Orientation Groundspeed Altitude Reporting Facility
EST Latitude Longitude Course Direction KTS MPH feet Rate Location/Type
01:26PM 47.1669 -101.6383 201° Southwest 179 206 8,400  Level Minneapolis Center
01:27PM 47.1231 -101.6628 201° Southwest 179 206 10,300 1,860 Climbing Minneapolis Center
01:28PM 47.0764 -101.6872 200° South 177 204 12,300 1,740 Climbing Minneapolis Center
01:29PM 47.0208 -101.7117 197° South 190 219 14,000 1,920 Climbing Minneapolis Center
01:30PM 46.9528 -101.7453 199° South 207 238 16,300 1,860 Climbing Minneapolis Center
01:31PM 46.8953 -101.7717 197° South 213 245 17,900 1,440 Climbing Minneapolis Center
01:32PM 46.8344 -101.8011 198° South 221 254 19,300 1,380 Climbing Minneapolis Center
01:33PM 46.7719 -101.8306 198° South 230 265 20,800 1,440 Climbing Minneapolis Center
01:34PM 46.7061 -101.8608 198° South 240 276 22,300 1,320 Climbing Minneapolis Center
01:35PM 46.6392 -101.8917 198° South 247 284 23,600 780 Climbing Minneapolis Center
01:36PM 46.5669 -101.9261 198° South 259 298 24,000 180 Climbing Minneapolis Center
01:37PM 46.4692 -101.9722 198° South 290 334 24,000  Level Minneapolis Center
01:38PM 46.3850 -102.0128 198° South 307 353 24,000  Level Minneapolis Center
01:39PM 46.3039 -102.0500 198° South 309 356 24,000  Level Minneapolis Center
01:40PM 46.2219 -102.0872 197° South 308 354 24,000  Level Minneapolis Center
01:41PM 46.1325 -102.1303 198° South 307 353 24,000  Level Minneapolis Center
01:42PM 46.0522 -102.1661 197° South 305 351 24,000  Level Minneapolis Center
01:43PM 45.9731 -102.2036 198° South 303 349 24,000  Level Minneapolis Center
01:44PM 45.8942 -102.2400 198° South 300 345 24,000  Level Minneapolis Center
01:45PM 45.7986 -102.2842 198° South 300 345 24,000  Level Minneapolis Center
01:46PM 45.7200 -102.3197 198° South 298 343 24,000  Level Minneapolis Center
01:47PM 45.6408 -102.3550 197° South 298 343 24,000  Level Minneapolis Center
01:48PM 45.5636 -102.3903 198° South 294 338 24,000  Level Minneapolis Center
01:49PM 45.4869 -102.4253 198° South 292 336 24,000  Level Minneapolis Center
01:50PM 45.3967 -102.4672 198° South 288 331 24,000  Level Minneapolis Center
01:51PM 45.3206 -102.4997 197° South 287 330 24,000 -180 Level Minneapolis Center
01:52PM 45.2433 -102.5347 198° South 289 333 23,700 -780 Descending Minneapolis Center
01:53PM 45.1644 -102.5692 197° South 294 338 22,400 -1,260 Descending Minneapolis Center
01:55PM 45.0825 -102.6053 197° South 303 349 21,100 -1,260 Descending Minneapolis Center
01:56PM 45.0025 -102.6406 197° South 303 349 19,800 -1,440 Descending Minneapolis Center
01:57PM 44.9056 -102.6853 198° South 304 350 18,200 -1,200 Descending Minneapolis Center
01:58PM 44.8275 -102.7189 197° South 301 346 17,400 -960 Descending Denver Center
01:58PM 44.8097 -102.7297 203° Southwest 299 344 17,000 -1,500 Descending Denver Center
01:59PM 44.7475 -102.7528 195° South 300 345 15,900 -1,620 Descending Denver Center
01:59PM 44.7278 -102.7656 205° Southwest 296 341 15,400 -1,500 Descending Denver Center
02:00PM 44.6683 -102.7889 196° South 300 345 14,400 -1,380 Descending Denver Center
02:00PM 44.6519 -102.7994 205° Southwest 294 338 14,000 -1,200 Descending Denver Center
02:01PM 44.5953 -102.8228 196° South 289 333 13,200 -1,260 Descending Denver Center
02:01PM 44.5681 -102.8358 199° South 286 329 12,600 -1,380 Descending Denver Center
02:02PM 44.5167 -102.8519 193° South 290 334 11,800 -1,440 Descending Denver Center
02:02PM 44.4897 -102.8672 202° Southwest 277 319 11,200 -1,380 Descending Denver Center
02:03PM 44.4394 -102.8814 191° South 290 334 10,400 -1,320 Descending Denver Center
02:03PM 44.4258 -102.8947 215° Southwest 273 314 10,000 -1,020 Descending Denver Center
02:04PM 44.3611 -102.9153 193° South 288 331 9,400 -1,200 Descending Denver Center
02:04PM 44.3578 -102.9231 239° Southwest 270 311 8,800 -1,740 Descending Denver Center
02:05PM 44.3139 -103.0008 232° Southwest 242 278 7,500 -900 Descending Denver Center
02:06PM 44.2839 -103.0864 244° Southwest 229 264 7,000 -600 Descending Denver Center
02:07PM 44.2608 -103.1608 247° West 219 252 6,300 -600 Descending Denver Center
02:08PM 44.2142 -103.1917 205° Southwest 187 215 5,900 -480 Descending Denver Center
02:09PM 44.1725 -103.1533 147° Southeast 179 206 5,400 -360 Descending Denver Center
02:10PM 44.1392 -103.1303 154° Southeast 168 193 5,300 -480 Descending Denver Center
02:11PM 44.1033 -103.1019 150° Southeast 134 154 4,600 -780 Descending Denver Center
02:12PM 44.0725 -103.0811 154° Southeast 116 133 3,800 -840 Descending Denver Center